createdAt,value
2023-05-22T00:00:51.584Z,19.97
2023-05-22T00:03:24.456Z,20.02
2023-05-22T00:05:57.096Z,19.94
2023-05-22T00:08:30.067Z,19.84
2023-05-22T00:11:00.717Z,19.86
2023-05-22T00:13:32.800Z,19.79
2023-05-22T00:16:03.520Z,19.78
2023-05-22T00:18:34.863Z,19.72
2023-05-22T00:21:06.877Z,19.81
2023-05-22T00:23:37.675Z,19.78
2023-05-22T00:26:08.538Z,19.68
2023-05-22T00:28:38.963Z,19.67
2023-05-22T00:31:09.974Z,19.60
2023-05-22T00:33:41.992Z,19.64
2023-05-22T00:36:12.707Z,19.56
2023-05-22T00:38:43.216Z,19.59
2023-05-22T00:41:14.273Z,19.47
2023-05-22T00:43:45.617Z,19.37
2023-05-22T00:46:17.995Z,19.45
2023-05-22T00:48:49.285Z,19.37
2023-05-22T00:51:26.286Z,19.36
2023-05-22T00:53:57.835Z,19.30
2023-05-22T00:56:29.220Z,19.29
2023-05-22T00:59:00.632Z,19.30
2023-05-22T01:01:33.892Z,19.23
2023-05-22T01:04:08.377Z,19.21
2023-05-22T01:06:41.335Z,19.16
2023-05-22T01:09:12.008Z,19.12
2023-05-22T01:11:48.533Z,19.09
2023-05-22T01:14:24.928Z,19.10
2023-05-22T01:17:01.574Z,19.04
2023-05-22T01:19:41.257Z,19.04
2023-05-22T01:22:17.643Z,19.00
2023-05-22T01:25:14.056Z,18.94
2023-05-22T01:27:57.093Z,19.02
2023-05-22T01:30:42.405Z,18.91
2023-05-22T01:33:18.209Z,18.79
2023-05-22T01:35:53.585Z,18.81
2023-05-22T01:38:25.743Z,18.91
2023-05-22T01:40:57.407Z,18.92
2023-05-22T01:43:28.593Z,18.78
2023-05-22T01:46:01.488Z,18.72
2023-05-22T01:48:32.143Z,18.82
2023-05-22T01:51:05.869Z,18.86
2023-05-22T01:53:39.550Z,18.80
2023-05-22T01:56:19.101Z,18.76
2023-05-22T01:58:52.793Z,18.78
2023-05-22T02:01:25.965Z,18.67
2023-05-22T02:03:59.033Z,18.60
2023-05-22T02:06:32.524Z,18.50
2023-05-22T02:09:04.686Z,18.38
2023-05-22T02:11:37.127Z,18.36
2023-05-22T02:14:08.983Z,18.26
2023-05-22T02:16:40.029Z,18.17
2023-05-22T02:19:10.935Z,18.13
2023-05-22T02:21:41.421Z,18.00
2023-05-22T02:24:12.483Z,17.96
2023-05-22T02:26:43.363Z,17.95
2023-05-22T02:29:14.221Z,17.91
2023-05-22T02:31:44.881Z,17.87
2023-05-22T02:34:16.037Z,17.81
2023-05-22T02:36:47.845Z,17.80
2023-05-22T02:39:20.304Z,17.70
2023-05-22T02:41:50.801Z,17.71
2023-05-22T02:44:21.287Z,17.70
2023-05-22T02:46:52.078Z,17.64
2023-05-22T02:49:22.682Z,17.68
2023-05-22T02:51:53.262Z,17.64
2023-05-22T02:54:23.776Z,17.50
2023-05-22T02:56:54.380Z,17.54
2023-05-22T02:59:24.934Z,17.52
2023-05-22T03:01:55.880Z,17.47
2023-05-22T03:04:27.602Z,17.46
2023-05-22T03:06:58.202Z,17.45
2023-05-22T03:09:28.797Z,17.43
2023-05-22T03:12:00.786Z,17.36
2023-05-22T03:14:32.394Z,17.32
2023-05-22T03:17:04.681Z,17.31
2023-05-22T03:19:35.260Z,17.39
2023-05-22T03:22:07.400Z,17.41
2023-05-22T03:24:39.701Z,17.30
2023-05-22T03:27:14.493Z,17.31
2023-05-22T03:29:45.121Z,17.24
2023-05-22T03:32:17.122Z,17.28
2023-05-22T03:34:47.640Z,17.29
2023-05-22T03:37:18.407Z,17.25
2023-05-22T03:39:48.911Z,17.33
2023-05-22T03:42:19.441Z,17.34
2023-05-22T03:44:50.107Z,17.22
2023-05-22T03:47:20.628Z,17.34
2023-05-22T03:49:52.766Z,17.40
2023-05-22T03:52:23.786Z,17.41
2023-05-22T03:54:54.433Z,17.34
2023-05-22T03:57:26.469Z,17.39
2023-05-22T03:59:57.241Z,17.40
2023-05-22T04:02:29.497Z,17.30
2023-05-22T04:05:00.664Z,17.37
2023-05-22T04:07:32.552Z,17.46
2023-05-22T04:10:04.718Z,17.50
2023-05-22T04:12:35.447Z,17.40
2023-05-22T04:15:07.477Z,17.51
2023-05-22T04:17:41.853Z,17.52
2023-05-22T04:20:12.951Z,17.50
2023-05-22T04:22:46.739Z,17.75
2023-05-22T04:25:17.439Z,17.76
2023-05-22T04:27:49.635Z,17.84
2023-05-22T04:30:22.058Z,17.77
2023-05-22T04:32:54.625Z,17.83
2023-05-22T04:35:25.258Z,17.82
2023-05-22T04:37:56.628Z,17.97
2023-05-22T04:40:30.851Z,17.96
2023-05-22T04:43:01.798Z,18.24
2023-05-22T04:45:33.122Z,18.31
2023-05-22T04:48:04.032Z,18.20
2023-05-22T04:50:36.288Z,18.27
2023-05-22T04:53:07.475Z,18.59
2023-05-22T04:55:37.980Z,19.18
2023-05-22T04:58:09.008Z,19.36
2023-05-22T05:00:39.727Z,19.02
2023-05-22T05:03:11.836Z,19.25
2023-05-22T05:05:42.590Z,19.38
2023-05-22T05:08:13.556Z,18.96
2023-05-22T05:10:44.186Z,18.34
2023-05-22T05:13:14.764Z,18.65
2023-05-22T05:15:45.393Z,19.02
2023-05-22T05:18:17.052Z,18.62
2023-05-22T05:20:47.840Z,18.46
2023-05-22T05:23:18.419Z,18.66
2023-05-22T05:25:50.581Z,18.62
2023-05-22T05:28:22.711Z,18.49
2023-05-22T05:30:53.647Z,18.46
2023-05-22T05:33:24.219Z,18.64
2023-05-22T05:35:56.690Z,18.60
2023-05-22T05:38:30.146Z,18.73
2023-05-22T05:41:00.705Z,19.51
2023-05-22T05:43:31.390Z,20.06
2023-05-22T05:46:02.226Z,19.77
2023-05-22T05:48:32.871Z,20.24
2023-05-22T05:51:03.573Z,20.51
2023-05-22T05:53:34.696Z,20.43
2023-05-22T05:56:06.660Z,21.20
2023-05-22T05:58:37.148Z,20.80
2023-05-22T06:01:08.448Z,20.46
2023-05-22T06:03:39.230Z,19.96
2023-05-22T06:06:10.687Z,20.52
2023-05-22T06:08:42.320Z,20.59
2023-05-22T06:11:12.948Z,20.77
2023-05-22T06:13:45.544Z,20.58
2023-05-22T06:16:16.634Z,20.13
2023-05-22T06:18:47.480Z,20.77
2023-05-22T06:21:19.845Z,20.46
2023-05-22T06:23:51.582Z,20.72
2023-05-22T06:26:23.561Z,20.40
2023-05-22T06:28:54.573Z,20.64
2023-05-22T06:31:26.005Z,20.25
2023-05-22T06:33:57.391Z,21.17
2023-05-22T06:36:28.255Z,20.55
2023-05-22T06:38:58.751Z,20.93
2023-05-22T06:41:29.445Z,20.68
2023-05-22T06:43:59.936Z,20.64
2023-05-22T06:46:30.624Z,20.72
2023-05-22T06:49:02.300Z,20.59
2023-05-22T06:51:34.305Z,20.22
2023-05-22T06:54:06.990Z,20.24
2023-05-22T06:56:37.675Z,20.13
2023-05-22T06:59:08.753Z,20.48
2023-05-22T07:01:39.670Z,20.12
2023-05-22T07:04:12.822Z,19.79
2023-05-22T07:06:44.062Z,19.88
2023-05-22T07:09:15.666Z,20.27
2023-05-22T07:11:47.677Z,20.51
2023-05-22T07:14:18.433Z,20.54
2023-05-22T07:16:49.141Z,20.72
2023-05-22T07:19:20.082Z,20.44
2023-05-22T07:21:50.933Z,20.89
2023-05-22T07:24:21.565Z,20.77
2023-05-22T07:26:52.951Z,20.62
2023-05-22T07:29:23.612Z,20.62
2023-05-22T07:31:54.460Z,20.44
2023-05-22T07:34:27.887Z,20.76
2023-05-22T07:36:59.882Z,20.50
2023-05-22T07:39:30.409Z,20.68
2023-05-22T07:42:02.017Z,20.42
2023-05-22T07:44:34.475Z,20.45
2023-05-22T07:47:05.625Z,20.74
2023-05-22T07:49:36.322Z,20.60
2023-05-22T07:52:07.629Z,20.84
2023-05-22T07:54:39.580Z,20.88
2023-05-22T07:57:12.585Z,21.02
2023-05-22T07:59:45.574Z,21.32
2023-05-22T08:02:16.679Z,21.39
2023-05-22T08:04:48.434Z,21.45
2023-05-22T08:07:19.008Z,21.53
2023-05-22T08:09:49.619Z,21.57
2023-05-22T08:12:20.255Z,21.65
2023-05-22T08:14:50.923Z,21.54
2023-05-22T08:17:21.570Z,21.77
2023-05-22T08:19:53.750Z,21.78
2023-05-22T08:22:24.948Z,21.78
2023-05-22T08:24:57.020Z,22.07
2023-05-22T08:27:29.172Z,22.34
2023-05-22T08:30:00.325Z,22.64
2023-05-22T08:32:31.795Z,22.25
2023-05-22T08:35:05.345Z,22.07
2023-05-22T08:37:37.092Z,22.12
2023-05-22T08:40:13.035Z,22.32
2023-05-22T08:42:44.576Z,22.30
2023-05-22T08:45:16.415Z,22.38
2023-05-22T08:47:50.247Z,22.40
2023-05-22T08:50:21.993Z,22.59
2023-05-22T08:52:54.994Z,22.84
2023-05-22T08:55:26.471Z,22.91
2023-05-22T08:57:58.858Z,23.28
2023-05-22T09:00:30.246Z,23.10
2023-05-22T09:03:01.267Z,22.65
2023-05-22T09:05:33.570Z,22.78
2023-05-22T09:08:15.964Z,22.97
2023-05-22T09:10:38.225Z,23.20
2023-05-22T09:13:11.338Z,23.25
2023-05-22T09:15:42.048Z,23.43
2023-05-22T09:18:13.455Z,23.39
2023-05-22T09:20:44.912Z,23.71
2023-05-22T09:23:18.298Z,23.99
2023-05-22T09:25:49.145Z,23.55
2023-05-22T09:28:20.554Z,23.34
2023-05-22T09:30:56.232Z,23.32
2023-05-22T09:33:27.102Z,23.62
2023-05-22T09:35:58.750Z,23.59
2023-05-22T09:38:31.365Z,23.27
2023-05-22T09:41:02.249Z,23.30
2023-05-22T09:43:35.864Z,23.44
2023-05-22T09:46:06.439Z,23.14
2023-05-22T09:48:37.597Z,23.24
2023-05-22T09:51:10.698Z,23.57
2023-05-22T09:53:44.248Z,23.84
2023-05-22T09:56:38.436Z,23.79
2023-05-22T09:59:01.121Z,23.42
2023-05-22T10:01:34.044Z,23.49
2023-05-22T10:04:07.736Z,23.62
2023-05-22T10:06:39.609Z,23.74
2023-05-22T10:09:13.128Z,23.60
2023-05-22T10:11:47.675Z,23.65
2023-05-22T10:14:21.945Z,23.68
2023-05-22T10:16:56.799Z,24.06
2023-05-22T10:19:29.102Z,23.91
2023-05-22T10:22:02.087Z,23.70
2023-05-22T10:24:33.011Z,23.69
2023-05-22T10:27:03.807Z,23.86
2023-05-22T10:29:43.520Z,23.99
2023-05-22T10:32:26.199Z,24.11
2023-05-22T10:35:24.332Z,24.25
2023-05-22T10:37:58.338Z,24.53
2023-05-22T10:40:32.678Z,24.38
2023-05-22T10:43:04.887Z,24.22
2023-05-22T10:45:36.817Z,24.12
2023-05-22T10:48:10.367Z,24.11
2023-05-22T10:50:43.338Z,24.08
2023-05-22T10:53:28.310Z,24.10
2023-05-22T10:56:03.704Z,24.01
2023-05-22T10:58:38.624Z,24.22
2023-05-22T11:01:14.520Z,24.38
2023-05-22T11:03:55.843Z,24.43
2023-05-22T11:06:43.507Z,24.09
2023-05-22T11:09:37.220Z,24.29
2023-05-22T11:12:22.661Z,24.23
2023-05-22T11:14:57.551Z,24.08
2023-05-22T11:17:31.287Z,24.10
2023-05-22T11:20:22.640Z,24.19
2023-05-22T11:23:05.190Z,24.34
2023-05-22T11:25:38.225Z,24.40
2023-05-22T11:28:12.838Z,24.19
2023-05-22T11:30:44.433Z,24.29
2023-05-22T11:33:17.814Z,23.99
2023-05-22T11:35:51.647Z,24.09
2023-05-22T11:38:23.531Z,24.31
2023-05-22T11:40:54.052Z,24.41
2023-05-22T11:43:36.032Z,24.35
2023-05-22T11:46:12.227Z,24.47
2023-05-22T11:48:43.546Z,24.62
2023-05-22T11:51:14.166Z,24.64
2023-05-22T11:53:44.867Z,24.82
2023-05-22T11:56:16.768Z,24.59
2023-05-22T11:58:52.276Z,24.88
2023-05-22T12:01:24.815Z,24.87
2023-05-22T12:03:58.793Z,25.26
2023-05-22T12:06:31.357Z,24.72
2023-05-22T12:09:04.724Z,24.69
2023-05-22T12:11:38.681Z,24.90
2023-05-22T12:14:12.527Z,24.76
2023-05-22T12:16:44.834Z,25.03
2023-05-22T12:19:19.392Z,24.49
2023-05-22T12:21:55.098Z,24.50
2023-05-22T12:24:25.961Z,24.73
2023-05-22T12:26:58.350Z,24.92
2023-05-22T12:29:29.848Z,25.26
2023-05-22T12:32:05.246Z,25.11
2023-05-22T12:34:39.538Z,25.20
2023-05-22T12:37:26.123Z,25.19
2023-05-22T12:39:59.013Z,25.22
2023-05-22T12:42:31.383Z,24.78
2023-05-22T12:45:03.484Z,24.81
2023-05-22T12:47:34.600Z,24.82
2023-05-22T12:50:20.492Z,25.05
2023-05-22T12:52:52.542Z,25.05
2023-05-22T12:55:24.359Z,24.91
2023-05-22T12:57:54.898Z,24.92
2023-05-22T13:00:26.006Z,25.00
2023-05-22T13:02:56.955Z,24.90
2023-05-22T13:05:27.645Z,24.82
2023-05-22T13:07:58.335Z,24.72
2023-05-22T13:10:29.378Z,24.78
2023-05-22T13:13:00.108Z,24.76
2023-05-22T13:15:32.350Z,24.79
2023-05-22T13:18:03.170Z,24.69
2023-05-22T13:20:36.984Z,24.51
2023-05-22T13:23:07.692Z,24.42
2023-05-22T13:25:39.074Z,24.47
2023-05-22T13:28:10.037Z,24.60
2023-05-22T13:30:41.162Z,24.46
2023-05-22T13:33:13.942Z,24.74
2023-05-22T13:35:44.800Z,24.59
2023-05-22T13:38:15.719Z,24.62
2023-05-22T13:40:48.320Z,24.86
2023-05-22T13:43:19.600Z,24.66
2023-05-22T13:45:52.143Z,24.81
2023-05-22T13:48:23.082Z,24.95
2023-05-22T13:50:53.879Z,25.14
2023-05-22T13:53:26.642Z,25.15
2023-05-22T13:55:58.359Z,25.33
2023-05-22T13:58:28.792Z,25.19
2023-05-22T14:00:59.668Z,25.17
2023-05-22T14:03:32.088Z,25.27
2023-05-22T14:06:02.932Z,25.37
2023-05-22T14:08:33.512Z,25.33
2023-05-22T14:11:05.564Z,25.41
2023-05-22T14:13:37.005Z,25.25
2023-05-22T14:16:07.689Z,25.14
2023-05-22T14:18:38.142Z,25.16
2023-05-22T14:21:11.188Z,25.04
2023-05-22T14:23:41.823Z,25.02
2023-05-22T14:26:14.370Z,24.86
2023-05-22T14:28:45.558Z,24.96
2023-05-22T14:31:16.244Z,24.97
2023-05-22T14:33:47.035Z,25.08
2023-05-22T14:36:18.001Z,25.21
2023-05-22T14:38:48.487Z,25.21
2023-05-22T14:41:19.228Z,25.23
2023-05-22T14:43:50.320Z,24.99
2023-05-22T14:46:20.929Z,25.34
2023-05-22T14:48:53.528Z,25.34
2023-05-22T14:51:24.849Z,25.52
2023-05-22T14:53:55.513Z,25.46
2023-05-22T14:56:26.673Z,25.60
2023-05-22T14:58:58.453Z,25.77
2023-05-22T15:01:29.022Z,25.62
2023-05-22T15:03:59.572Z,25.75
2023-05-22T15:06:30.158Z,25.53
2023-05-22T15:09:01.139Z,25.68
2023-05-22T15:11:31.933Z,25.60
2023-05-22T15:14:02.665Z,25.32
2023-05-22T15:16:33.493Z,25.46
2023-05-22T15:19:05.243Z,25.23
2023-05-22T15:21:36.686Z,25.07
2023-05-22T15:24:09.136Z,25.14
2023-05-22T15:26:41.292Z,25.09
2023-05-22T15:29:12.722Z,25.10
2023-05-22T15:31:43.370Z,25.02
2023-05-22T15:34:14.275Z,25.06
2023-05-22T15:36:44.825Z,25.04
2023-05-22T15:39:15.717Z,24.92
2023-05-22T15:41:54.654Z,24.85
2023-05-22T15:44:19.392Z,24.89
2023-05-22T15:46:53.731Z,25.03
2023-05-22T15:49:24.347Z,25.01
2023-05-22T15:51:57.814Z,24.78
2023-05-22T15:54:42.542Z,24.52
2023-05-22T15:57:14.349Z,24.42
2023-05-22T15:59:46.642Z,24.38
2023-05-22T16:02:17.842Z,24.60
2023-05-22T16:04:50.699Z,24.73
2023-05-22T16:07:21.389Z,24.68
2023-05-22T16:09:52.249Z,24.73
2023-05-22T16:12:23.769Z,24.90
2023-05-22T16:15:00.254Z,25.14
2023-05-22T16:17:27.195Z,25.14
2023-05-22T16:19:59.483Z,24.84
2023-05-22T16:22:40.635Z,24.84
2023-05-22T16:25:04.745Z,24.57
2023-05-22T16:27:37.050Z,24.49
2023-05-22T16:30:11.191Z,24.49
2023-05-22T16:32:43.555Z,24.55
2023-05-22T16:35:14.818Z,24.53
2023-05-22T16:37:45.527Z,24.62
2023-05-22T16:40:16.492Z,24.56
2023-05-22T16:42:47.597Z,24.46
2023-05-22T16:45:18.249Z,24.42
2023-05-22T16:47:48.810Z,24.56
2023-05-22T16:50:20.897Z,24.66
2023-05-22T16:52:51.505Z,24.81
2023-05-22T16:55:22.536Z,24.66
2023-05-22T16:57:53.538Z,24.58
2023-05-22T17:00:25.248Z,24.40
2023-05-22T17:02:56.805Z,24.82
2023-05-22T17:05:27.433Z,24.59
2023-05-22T17:07:58.083Z,24.49
2023-05-22T17:10:28.898Z,25.04
2023-05-22T17:13:00.808Z,24.65
2023-05-22T17:15:31.534Z,24.55
2023-05-22T17:18:03.177Z,24.71
2023-05-22T17:20:35.861Z,24.82
2023-05-22T17:23:07.302Z,24.73
2023-05-22T17:25:39.587Z,24.79
2023-05-22T17:28:10.772Z,24.64
2023-05-22T17:30:49.006Z,24.75
2023-05-22T17:33:19.643Z,24.39
2023-05-22T17:35:50.863Z,24.80
2023-05-22T17:38:22.110Z,24.69
2023-05-22T17:40:53.633Z,24.27
2023-05-22T17:43:24.221Z,24.50
2023-05-22T17:45:55.329Z,24.30
2023-05-22T17:48:27.803Z,24.29
2023-05-22T17:50:59.526Z,23.90
2023-05-22T17:53:31.947Z,23.74
2023-05-22T17:56:02.675Z,23.84
2023-05-22T17:58:33.233Z,23.60
2023-05-22T18:01:08.021Z,23.53
2023-05-22T18:03:38.840Z,23.52
2023-05-22T18:06:09.609Z,23.50
2023-05-22T18:08:41.406Z,23.43
2023-05-22T18:11:11.956Z,23.32
2023-05-22T18:13:43.300Z,23.27
2023-05-22T18:16:14.126Z,23.30
2023-05-22T18:18:45.065Z,23.11
2023-05-22T18:21:16.445Z,23.18
2023-05-22T18:23:47.954Z,23.11
2023-05-22T18:26:18.589Z,23.00
2023-05-22T18:28:49.304Z,22.98
2023-05-22T18:31:22.358Z,23.01
2023-05-22T18:33:53.906Z,22.80
2023-05-22T18:36:24.572Z,22.77
2023-05-22T18:38:55.534Z,22.74
2023-05-22T18:41:29.723Z,22.60
2023-05-22T18:44:00.165Z,22.71
2023-05-22T18:46:32.532Z,22.58
2023-05-22T18:49:03.264Z,22.64
2023-05-22T18:51:36.005Z,22.38
2023-05-22T18:54:07.995Z,22.41
2023-05-22T18:56:39.293Z,22.38
2023-05-22T18:59:09.965Z,22.37
2023-05-22T19:01:40.740Z,22.28
2023-05-22T19:04:12.320Z,22.30
2023-05-22T19:06:43.599Z,22.24
2023-05-22T19:09:14.248Z,22.16
2023-05-22T19:11:47.419Z,22.15
2023-05-22T19:14:18.174Z,21.99
2023-05-22T19:16:48.892Z,21.99
2023-05-22T19:19:20.070Z,22.00
2023-05-22T19:21:51.140Z,21.90
2023-05-22T19:24:22.855Z,21.84
2023-05-22T19:26:53.527Z,21.78
2023-05-22T19:29:25.756Z,21.76
2023-05-22T19:31:58.397Z,21.78
2023-05-22T19:34:29.974Z,21.80
2023-05-22T19:37:01.017Z,21.64
2023-05-22T19:39:31.586Z,21.68
2023-05-22T19:42:05.384Z,21.63
2023-05-22T19:44:36.315Z,21.55
2023-05-22T19:47:07.167Z,21.56
2023-05-22T19:49:38.319Z,21.49
2023-05-22T19:52:10.503Z,21.44
2023-05-22T19:54:42.190Z,21.44
2023-05-22T19:57:14.092Z,21.34
2023-05-22T19:59:46.972Z,21.30
2023-05-22T20:02:17.675Z,21.32
2023-05-22T20:04:48.379Z,21.24
2023-05-22T20:07:19.209Z,21.06
2023-05-22T20:09:50.149Z,21.01
2023-05-22T20:12:20.731Z,21.13
2023-05-22T20:15:01.528Z,21.08
2023-05-22T20:17:27.430Z,21.02
2023-05-22T20:20:01.649Z,20.96
2023-05-22T20:22:32.184Z,21.01
2023-05-22T20:25:05.619Z,21.09
2023-05-22T20:27:36.343Z,20.94
2023-05-22T20:30:09.783Z,21.05
2023-05-22T20:32:42.698Z,20.91
2023-05-22T20:35:16.631Z,20.74
2023-05-22T20:37:47.693Z,20.78
2023-05-22T20:40:18.542Z,20.76
2023-05-22T20:42:50.231Z,20.71
2023-05-22T20:45:22.684Z,20.70
2023-05-22T20:47:53.487Z,20.64
2023-05-22T20:50:24.664Z,20.60
2023-05-22T20:52:55.147Z,20.62
2023-05-22T20:55:25.889Z,20.56
2023-05-22T20:57:58.025Z,20.54
2023-05-22T21:00:29.921Z,20.55
2023-05-22T21:03:01.182Z,20.44
2023-05-22T21:05:31.712Z,20.46
2023-05-22T21:08:02.221Z,20.52
2023-05-22T21:10:32.896Z,20.41
2023-05-22T21:13:03.399Z,20.30
2023-05-22T21:15:34.008Z,20.26
2023-05-22T21:18:04.730Z,20.24
2023-05-22T21:20:35.438Z,20.36
2023-05-22T21:23:06.318Z,20.33
2023-05-22T21:25:36.985Z,20.23
2023-05-22T21:28:07.971Z,20.34
2023-05-22T21:30:40.084Z,20.32
2023-05-22T21:33:12.055Z,20.33
2023-05-22T21:35:42.712Z,20.32
2023-05-22T21:38:13.325Z,20.34
2023-05-22T21:40:44.061Z,20.38
2023-05-22T21:43:15.177Z,20.32
2023-05-22T21:45:45.886Z,20.32
2023-05-22T21:48:16.402Z,20.32
2023-05-22T21:50:47.054Z,20.34
2023-05-22T21:53:17.563Z,20.20
2023-05-22T21:55:48.477Z,20.25
2023-05-22T21:58:18.957Z,20.24
2023-05-22T22:00:49.603Z,20.24
2023-05-22T22:03:20.776Z,20.25
2023-05-22T22:05:51.549Z,20.16
2023-05-22T22:08:22.197Z,20.12
2023-05-22T22:10:52.809Z,20.13
2023-05-22T22:13:23.391Z,20.04
2023-05-22T22:15:54.162Z,20.06
2023-05-22T22:18:24.736Z,20.04
2023-05-22T22:20:56.005Z,20.06
2023-05-22T22:23:26.572Z,19.98
2023-05-22T22:25:58.768Z,19.95
2023-05-22T22:28:29.207Z,19.91
2023-05-22T22:31:01.346Z,19.85
2023-05-22T22:33:34.655Z,19.81
2023-05-22T22:36:05.377Z,19.77
2023-05-22T22:38:35.938Z,19.70
2023-05-22T22:41:08.547Z,19.64
2023-05-22T22:43:39.673Z,19.65
2023-05-22T22:46:10.430Z,19.71
2023-05-22T22:48:41.788Z,19.76
2023-05-22T22:51:12.650Z,19.71
2023-05-22T22:53:44.412Z,19.64
2023-05-22T22:56:15.191Z,19.61
2023-05-22T22:58:45.826Z,19.51
2023-05-22T23:01:16.485Z,19.58
2023-05-22T23:03:47.242Z,19.63
2023-05-22T23:06:20.954Z,19.59
2023-05-22T23:08:52.735Z,19.69
2023-05-22T23:11:23.710Z,19.56
2023-05-22T23:13:56.231Z,19.47
2023-05-22T23:16:26.896Z,19.55
2023-05-22T23:18:57.736Z,19.44
2023-05-22T23:21:28.492Z,19.44
2023-05-22T23:23:59.845Z,19.45
2023-05-22T23:26:31.049Z,19.50
2023-05-22T23:29:02.274Z,19.39
2023-05-22T23:31:32.853Z,19.32
2023-05-22T23:34:03.563Z,19.28
2023-05-22T23:36:34.049Z,19.26
2023-05-22T23:39:04.761Z,19.21
2023-05-22T23:41:35.598Z,19.27
2023-05-22T23:44:06.245Z,19.24
2023-05-22T23:46:38.520Z,19.12
2023-05-22T23:49:09.302Z,19.08
2023-05-22T23:51:39.906Z,19.10
2023-05-22T23:54:12.666Z,19.13
2023-05-22T23:56:43.292Z,19.04
2023-05-22T23:59:15.864Z,19.19
